ADDS METAR Data INFO
IDs: Format: Raw Decoded Include TAF

Data at: 1012 UTC 12 Dec 2017

KVES 120955Z AUTO 32017G23KT 4SM UP SCT013 SCT021 00/00 A2978 RMK AO2
KVES 120935Z AUTO 31016G23KT 3SM UP SCT013 00/00 A2978 RMK AO2
KVES 120915Z AUTO 31021G27KT 4SM BR SCT009 SCT013 00/00 A2977 RMK AO2
KVES 120855Z AUTO 31015G22KT 7SM CLR 00/00 A2977 RMK AO2
KVES 120835Z AUTO 31015G25KT 5SM BR CLR 00/00 A2976 RMK AO2
KVES 120815Z AUTO 31014G18KT 3SM BR CLR 00/00 A2975 RMK AO2
KVES 120755Z AUTO 31014KT 3SM BR CLR 00/00 A2975 RMK AO2
KVES 120735Z AUTO 30012KT 3SM BR CLR 00/00 A2975 RMK AO2
KVES 120715Z AUTO 31012KT 5SM BR CLR 00/00 A2974 RMK AO2
KVES 120655Z AUTO 30012G15KT 7SM CLR 00/00 A2973 RMK AO2
KVES 120635Z AUTO 32013G21KT 10SM CLR 00/00 A2972 RMK AO2
KVES 120615Z AUTO 32013G18KT 10SM CLR 00/M01 A2971 RMK AO2
KVES 120555Z AUTO 32013G20KT 10SM CLR 01/M01 A2970 RMK AO2
KVES 120535Z AUTO 31014G21KT 10SM CLR 01/M01 A2969 RMK AO2
KVES 120515Z AUTO 29015G22KT 10SM CLR 02/M01 A2968 RMK AO2
KVES 120455Z AUTO 28015G23KT 10SM CLR 02/M01 A2966 RMK AO2
KVES 120435Z AUTO 27013G20KT 10SM CLR 02/M01 A2965 RMK AO2
KVES 120415Z AUTO 27013G18KT 10SM CLR 02/M01 A2964 RMK AO2
KVES 120355Z AUTO 26010KT 10SM CLR 02/M01 A2964 RMK AO2
KVES 120335Z AUTO 26011G18KT 10SM CLR 02/M01 A2963 RMK AO2
KVES 120315Z AUTO 24008KT 10SM CLR 01/M01 A2964 RMK AO2
KVES 120255Z AUTO 22004KT 10SM CLR 01/M01 A2964 RMK AO2
KVES 120235Z AUTO 20004KT 10SM CLR 00/M01 A2964 RMK AO2
KVES 120215Z AUTO 17005KT 10SM CLR 00/M01 A2964 RMK AO2
KVES 120155Z AUTO 16005KT 10SM CLR 01/M01 A2965 RMK AO2
KVES 120135Z AUTO 15004KT 10SM CLR 01/M01 A2966 RMK AO2
KVES 120115Z AUTO 13005KT 10SM CLR 01/M01 A2965 RMK AO2
KVES 120055Z AUTO 13006KT 10SM CLR 01/M01 A2966 RMK AO2
KVES 120035Z AUTO 14009KT 10SM CLR 01/M01 A2967 RMK AO2
KVES 120015Z AUTO 14008KT 10SM CLR 01/M01 A2968 RMK AO2
KVES 112355Z AUTO 14009KT 10SM CLR 01/M01 A2969 RMK AO2
KVES 112335Z AUTO 14008KT 10SM CLR 01/M01 A2970 RMK AO2
KVES 112315Z AUTO 14009KT 10SM CLR 01/M01 A2970 RMK AO2
KVES 112255Z AUTO 15010KT 10SM CLR 01/M01 A2972 RMK AO2
KVES 112235Z AUTO 15007KT 10SM CLR 01/M01 A2973 RMK AO2
KVES 112215Z AUTO 15006KT 10SM CLR 01/M01 A2973 RMK AO2
KVES 112155Z AUTO 14008KT 10SM CLR 01/M01 A2973 RMK AO2
KVES 112135Z AUTO 15005KT 10SM CLR 01/M01 A2975 RMK AO2
KVES 112115Z AUTO 15007KT 10SM CLR 01/M01 A2975 RMK AO2
KVES 112055Z AUTO 16009KT 10SM CLR 01/M01 A2975 RMK AO2
KVES 112035Z AUTO 16007G14KT 10SM CLR 02/M01 A2978 RMK AO2
KVES 112015Z AUTO 15009KT 10SM CLR 01/M01 A2979 RMK AO2
KVES 111955Z AUTO 16006KT 10SM CLR 01/M01 A2980 RMK AO2
KVES 111935Z AUTO 17007KT 10SM CLR 01/M01 A2982 RMK AO2
KVES 111915Z AUTO 16006KT 10SM CLR 01/M01 A2983 RMK AO2
KVES 111855Z AUTO 17004KT 10SM CLR 01/M01 A2985 RMK AO2
KVES 111835Z AUTO 18005KT 10SM CLR 01/M02 A2986 RMK AO2
KVES 111815Z AUTO 20006KT 10SM CLR 00/M02 A2987 RMK AO2
KVES 111755Z AUTO 19006KT 10SM CLR 00/M02 A2987 RMK AO2
KVES 111735Z AUTO 19009KT 10SM CLR 00/M02 A2989 RMK AO2
KVES 111715Z AUTO 20008KT 10SM CLR 00/M03 A2991 RMK AO2
KVES 111655Z AUTO 18009G15KT 10SM CLR 00/M03 A2992 RMK AO2
KVES 111635Z AUTO 19013G17KT 10SM CLR 00/M03 A2995 RMK AO2
KVES 111615Z AUTO 19010G14KT 10SM CLR 00/M03 A2997 RMK AO2
KVES 111555Z AUTO 18006KT 10SM CLR M01/M03 A2997 RMK AO2
KVES 111535Z AUTO 18006KT 10SM CLR M01/M03 A2999 RMK AO2
KVES 111515Z AUTO 19006KT 10SM CLR M01/M03 A2999 RMK AO2
KVES 111455Z AUTO 17007KT 10SM CLR M01/M03 A2998 RMK AO2
KVES 111435Z AUTO 18003KT 10SM CLR M02/M04 A3001 RMK AO2
KVES 111415Z AUTO 17005KT 10SM CLR M02/M04 A3001 RMK AO2
KVES 111355Z AUTO 20005KT 10SM CLR M03/M05 A3004 RMK AO2
KVES 111335Z AUTO 19003KT 10SM CLR M03/M05 A3004 RMK AO2
KVES 111315Z AUTO 19003KT 10SM CLR M03/M05 A3005 RMK AO2
KVES 111255Z AUTO 21004KT 10SM CLR M04/M05 A3005 RMK AO2
KVES 111235Z AUTO 00000KT 10SM CLR M05/M06 A3005 RMK AO2
KVES 111215Z AUTO 00000KT 10SM CLR M05/M06 A3005 RMK AO2
KVES 111155Z AUTO 17005KT 10SM CLR M05/M06 A3004 RMK AO2
KVES 111135Z AUTO 21003KT 10SM CLR M06/M07 A3005 RMK AO2
KVES 111115Z AUTO 20003KT 10SM CLR M06/M07 A3005 RMK AO2
KVES 111055Z AUTO 22004KT 10SM CLR M06/M06 A3005 RMK AO2
KVES 111035Z AUTO 00000KT 10SM CLR M05/M06 A3005 RMK AO2
KVES 111015Z AUTO 00000KT 10SM CLR M04/M06 A3005 RMK AO2
KVES 110955Z AUTO 00000KT 10SM CLR M03/M05 A3005 RMK AO2
KVES 110935Z AUTO 00000KT 10SM CLR M02/M05 A3005 RMK AO2
KVES 110915Z AUTO 00000KT 10SM CLR M02/M05 A3005 RMK AO2
KVES 110855Z AUTO 33003KT 10SM SCT001 M02/M05 A3005 RMK AO2
KVES 110835Z AUTO 32003KT 10SM SCT001 M02/M05 A3005 RMK AO2
KVES 110815Z AUTO 33004KT 10SM CLR M01/M05 A3005 RMK AO2
KVES 110755Z AUTO 32007KT 10SM CLR M01/M05 A3005 RMK AO2
KVES 110735Z AUTO 32004KT 10SM CLR M01/M04 A3005 RMK AO2
KVES 110715Z AUTO 33005KT 10SM CLR M01/M04 A3005 RMK AO2
KVES 110655Z AUTO 33005KT 10SM CLR M01/M04 A3005 RMK AO2
KVES 110635Z AUTO 33008KT 10SM CLR M01/M03 A3005 RMK AO2
KVES 110615Z AUTO 32008KT 10SM CLR M01/M03 A3005 RMK AO2
KVES 110555Z AUTO 32009KT 10SM CLR M01/M04 A3004 RMK AO2
KVES 110535Z AUTO 33010G16KT 10SM CLR M01/M03 A3004 RMK AO2
KVES 110515Z AUTO 32008G16KT 10SM CLR M01/M03 A3004 RMK AO2
KVES 110455Z AUTO 33009KT 10SM CLR M01/M03 A3003 RMK AO2
KVES 110435Z AUTO 33010KT 10SM SCT001 M01/M03 A3002 RMK AO2
KVES 110415Z AUTO 32009G15KT 10SM CLR 00/M03 A3001 RMK AO2
KVES 110355Z AUTO 32012KT 10SM SCT001 00/M03 A3001 RMK AO2
KVES 110335Z AUTO 30009KT 10SM SCT001 00/M03 A3000 RMK AO2
KVES 110315Z AUTO 28008KT 10SM SCT001 00/M03 A2999 RMK AO2
KVES 110255Z AUTO 28007KT 10SM CLR 00/M03 A2999 RMK AO2
KVES 110235Z AUTO 26006KT 10SM CLR 00/M03 A2999 RMK AO2
KVES 110215Z AUTO 26007KT 10SM CLR 00/M04 A2999 RMK AO2
KVES 110155Z AUTO 25006KT 10SM CLR 00/M04 A2998 RMK AO2
KVES 110135Z AUTO 23009KT 10SM CLR 00/M05 A2998 RMK AO2
KVES 110115Z AUTO 22008KT 10SM CLR 00/M05 A2997 RMK AO2
KVES 110055Z AUTO 22008KT 10SM 00/M05 A2997 RMK AO2
KVES 110035Z AUTO 21007KT 10SM 00/M05 A2997 RMK AO2
KVES 110015Z AUTO 23006KT 10SM 00/M05 A2998 RMK AO2
KVES 102355Z AUTO 22007KT 10SM 00/M05 A2997 RMK AO2
KVES 102335Z AUTO 22005KT 10SM CLR M01/M05 A2997 RMK AO2
KVES 102315Z AUTO 22005KT 10SM CLR M01/M06 A2997 RMK AO2
KVES 102255Z AUTO 22005KT 10SM CLR M01/M06 A2997 RMK AO2
KVES 102235Z AUTO 23004KT 10SM CLR M01/M06 A2997 RMK AO2
KVES 102215Z AUTO 23004KT 10SM CLR M01/M06 A2996 RMK AO2